sensor_id;sensor_type;location;lat;lon;timestamp;P1;durP1;ratioP1;P2;durP2;ratioP2
11614;SDS011;5863;52.832;4.758;2022-08-19T00:00:06;7.07;;;5.57;;
11614;SDS011;5863;52.832;4.758;2022-08-19T00:02:35;5.97;;;5.47;;
11614;SDS011;5863;52.832;4.758;2022-08-19T00:05:03;7.25;;;6.05;;
11614;SDS011;5863;52.832;4.758;2022-08-19T00:07:30;6.90;;;5.97;;
11614;SDS011;5863;52.832;4.758;2022-08-19T00:09:57;7.43;;;5.78;;
11614;SDS011;5863;52.832;4.758;2022-08-19T00:12:23;8.93;;;6.43;;
11614;SDS011;5863;52.832;4.758;2022-08-19T00:14:50;5.90;;;5.40;;
11614;SDS011;5863;52.832;4.758;2022-08-19T00:17:19;6.95;;;5.40;;
11614;SDS011;5863;52.832;4.758;2022-08-19T00:19:47;7.18;;;5.57;;
11614;SDS011;5863;52.832;4.758;2022-08-19T00:22:14;6.35;;;5.65;;
11614;SDS011;5863;52.832;4.758;2022-08-19T00:24:42;8.35;;;5.70;;
11614;SDS011;5863;52.832;4.758;2022-08-19T00:27:10;7.50;;;5.50;;
11614;SDS011;5863;52.832;4.758;2022-08-19T00:29:37;8.43;;;5.88;;
11614;SDS011;5863;52.832;4.758;2022-08-19T00:32:04;6.20;;;4.93;;
11614;SDS011;5863;52.832;4.758;2022-08-19T00:34:32;7.22;;;5.65;;
11614;SDS011;5863;52.832;4.758;2022-08-19T00:37:00;5.93;;;5.43;;
11614;SDS011;5863;52.832;4.758;2022-08-19T00:39:27;6.57;;;5.78;;
11614;SDS011;5863;52.832;4.758;2022-08-19T00:41:55;8.43;;;6.07;;
11614;SDS011;5863;52.832;4.758;2022-08-19T00:44:24;8.38;;;6.07;;
11614;SDS011;5863;52.832;4.758;2022-08-19T00:46:53;8.55;;;6.03;;
11614;SDS011;5863;52.832;4.758;2022-08-19T00:49:23;7.07;;;6.07;;
11614;SDS011;5863;52.832;4.758;2022-08-19T00:51:53;9.73;;;5.70;;
11614;SDS011;5863;52.832;4.758;2022-08-19T00:54:26;6.72;;;5.70;;
11614;SDS011;5863;52.832;4.758;2022-08-19T00:56:56;7.60;;;5.75;;
11614;SDS011;5863;52.832;4.758;2022-08-19T00:59:24;6.82;;;6.03;;
11614;SDS011;5863;52.832;4.758;2022-08-19T01:01:51;9.48;;;6.18;;
11614;SDS011;5863;52.832;4.758;2022-08-19T01:04:18;6.78;;;6.00;;
11614;SDS011;5863;52.832;4.758;2022-08-19T01:06:45;7.05;;;5.82;;
11614;SDS011;5863;52.832;4.758;2022-08-19T01:09:12;8.05;;;6.43;;
11614;SDS011;5863;52.832;4.758;2022-08-19T01:11:41;6.20;;;5.60;;
11614;SDS011;5863;52.832;4.758;2022-08-19T01:14:09;7.53;;;5.40;;
11614;SDS011;5863;52.832;4.758;2022-08-19T01:16:36;7.50;;;5.78;;
11614;SDS011;5863;52.832;4.758;2022-08-19T01:19:07;8.43;;;6.72;;
11614;SDS011;5863;52.832;4.758;2022-08-19T01:21:40;7.55;;;6.65;;
11614;SDS011;5863;52.832;4.758;2022-08-19T01:24:11;8.77;;;6.68;;
11614;SDS011;5863;52.832;4.758;2022-08-19T01:26:39;6.50;;;5.90;;
11614;SDS011;5863;52.832;4.758;2022-08-19T01:29:08;7.55;;;6.07;;
11614;SDS011;5863;52.832;4.758;2022-08-19T01:31:35;8.95;;;6.00;;
11614;SDS011;5863;52.832;4.758;2022-08-19T01:34:04;8.80;;;6.70;;
11614;SDS011;5863;52.832;4.758;2022-08-19T01:36:32;7.40;;;6.60;;
11614;SDS011;5863;52.832;4.758;2022-08-19T01:39:02;10.73;;;6.68;;
11614;SDS011;5863;52.832;4.758;2022-08-19T01:41:32;9.05;;;7.25;;
11614;SDS011;5863;52.832;4.758;2022-08-19T01:43:59;9.93;;;7.35;;
11614;SDS011;5863;52.832;4.758;2022-08-19T01:46:28;8.15;;;6.97;;
11614;SDS011;5863;52.832;4.758;2022-08-19T01:48:55;8.82;;;6.95;;
11614;SDS011;5863;52.832;4.758;2022-08-19T01:51:22;8.45;;;7.60;;
11614;SDS011;5863;52.832;4.758;2022-08-19T01:53:50;8.77;;;7.35;;
11614;SDS011;5863;52.832;4.758;2022-08-19T01:56:17;8.10;;;6.97;;
11614;SDS011;5863;52.832;4.758;2022-08-19T01:58:47;8.40;;;7.60;;
11614;SDS011;5863;52.832;4.758;2022-08-19T02:01:17;9.15;;;6.70;;
11614;SDS011;5863;52.832;4.758;2022-08-19T02:03:45;10.48;;;7.63;;
11614;SDS011;5863;52.832;4.758;2022-08-19T02:06:12;9.57;;;7.82;;
11614;SDS011;5863;52.832;4.758;2022-08-19T02:08:39;8.23;;;7.43;;
11614;SDS011;5863;52.832;4.758;2022-08-19T02:11:06;7.95;;;7.22;;
11614;SDS011;5863;52.832;4.758;2022-08-19T02:13:33;8.57;;;7.68;;
11614;SDS011;5863;52.832;4.758;2022-08-19T02:16:01;9.52;;;7.68;;
11614;SDS011;5863;52.832;4.758;2022-08-19T02:18:31;8.43;;;7.60;;
11614;SDS011;5863;52.832;4.758;2022-08-19T02:20:58;10.88;;;7.88;;
11614;SDS011;5863;52.832;4.758;2022-08-19T02:23:25;10.90;;;7.88;;
11614;SDS011;5863;52.832;4.758;2022-08-19T02:25:52;10.63;;;8.27;;
11614;SDS011;5863;52.832;4.758;2022-08-19T02:28:19;10.43;;;8.13;;
11614;SDS011;5863;52.832;4.758;2022-08-19T02:30:46;9.68;;;8.68;;
11614;SDS011;5863;52.832;4.758;2022-08-19T02:33:16;11.05;;;8.07;;
11614;SDS011;5863;52.832;4.758;2022-08-19T02:35:43;9.13;;;8.23;;
11614;SDS011;5863;52.832;4.758;2022-08-19T02:38:10;9.63;;;8.07;;
11614;SDS011;5863;52.832;4.758;2022-08-19T02:40:53;11.18;;;8.70;;
11614;SDS011;5863;52.832;4.758;2022-08-19T02:43:22;9.32;;;8.43;;
11614;SDS011;5863;52.832;4.758;2022-08-19T02:45:53;10.45;;;9.02;;
11614;SDS011;5863;52.832;4.758;2022-08-19T02:48:22;10.57;;;9.35;;
11614;SDS011;5863;52.832;4.758;2022-08-19T02:50:51;12.05;;;9.43;;
11614;SDS011;5863;52.832;4.758;2022-08-19T02:53:20;13.77;;;10.00;;
11614;SDS011;5863;52.832;4.758;2022-08-19T02:55:48;12.70;;;9.70;;
11614;SDS011;5863;52.832;4.758;2022-08-19T02:58:15;11.48;;;9.73;;
11614;SDS011;5863;52.832;4.758;2022-08-19T03:00:44;13.60;;;10.35;;
11614;SDS011;5863;52.832;4.758;2022-08-19T03:03:13;13.15;;;10.70;;
11614;SDS011;5863;52.832;4.758;2022-08-19T03:05:41;14.52;;;10.73;;
11614;SDS011;5863;52.832;4.758;2022-08-19T03:08:09;12.02;;;10.77;;
11614;SDS011;5863;52.832;4.758;2022-08-19T03:10:39;13.55;;;11.27;;
11614;SDS011;5863;52.832;4.758;2022-08-19T03:13:09;13.70;;;11.18;;
11614;SDS011;5863;52.832;4.758;2022-08-19T03:15:38;17.00;;;13.30;;
11614;SDS011;5863;52.832;4.758;2022-08-19T03:18:06;17.23;;;12.55;;
11614;SDS011;5863;52.832;4.758;2022-08-19T03:20:33;16.65;;;13.70;;
11614;SDS011;5863;52.832;4.758;2022-08-19T03:23:01;15.60;;;12.80;;
11614;SDS011;5863;52.832;4.758;2022-08-19T03:25:27;15.15;;;12.20;;
11614;SDS011;5863;52.832;4.758;2022-08-19T03:27:54;16.73;;;12.85;;
11614;SDS011;5863;52.832;4.758;2022-08-19T03:30:21;18.63;;;12.95;;
11614;SDS011;5863;52.832;4.758;2022-08-19T03:32:47;15.68;;;12.85;;
11614;SDS011;5863;52.832;4.758;2022-08-19T03:35:14;15.32;;;12.45;;
11614;SDS011;5863;52.832;4.758;2022-08-19T03:37:41;15.15;;;13.27;;
11614;SDS011;5863;52.832;4.758;2022-08-19T03:40:09;15.32;;;13.10;;
11614;SDS011;5863;52.832;4.758;2022-08-19T03:42:36;19.20;;;14.38;;
11614;SDS011;5863;52.832;4.758;2022-08-19T03:45:04;19.17;;;13.70;;
11614;SDS011;5863;52.832;4.758;2022-08-19T03:47:32;16.95;;;13.57;;
11614;SDS011;5863;52.832;4.758;2022-08-19T03:49:58;16.17;;;12.93;;
11614;SDS011;5863;52.832;4.758;2022-08-19T03:52:25;16.33;;;13.45;;
11614;SDS011;5863;52.832;4.758;2022-08-19T03:54:52;15.73;;;13.90;;
11614;SDS011;5863;52.832;4.758;2022-08-19T03:57:22;16.73;;;14.57;;
11614;SDS011;5863;52.832;4.758;2022-08-19T03:59:49;18.77;;;14.05;;
11614;SDS011;5863;52.832;4.758;2022-08-19T04:02:19;18.05;;;14.20;;
11614;SDS011;5863;52.832;4.758;2022-08-19T04:04:46;17.08;;;14.38;;
11614;SDS011;5863;52.832;4.758;2022-08-19T04:07:13;18.13;;;14.15;;
11614;SDS011;5863;52.832;4.758;2022-08-19T04:09:41;15.63;;;13.13;;
11614;SDS011;5863;52.832;4.758;2022-08-19T04:12:08;16.63;;;13.75;;
11614;SDS011;5863;52.832;4.758;2022-08-19T04:14:37;16.77;;;13.80;;
11614;SDS011;5863;52.832;4.758;2022-08-19T04:17:04;17.98;;;14.30;;
11614;SDS011;5863;52.832;4.758;2022-08-19T04:19:31;16.10;;;13.88;;
11614;SDS011;5863;52.832;4.758;2022-08-19T04:21:59;16.42;;;13.90;;
11614;SDS011;5863;52.832;4.758;2022-08-19T04:24:26;19.05;;;14.90;;
11614;SDS011;5863;52.832;4.758;2022-08-19T04:26:53;21.10;;;14.63;;
11614;SDS011;5863;52.832;4.758;2022-08-19T04:29:20;17.35;;;14.57;;
11614;SDS011;5863;52.832;4.758;2022-08-19T04:31:52;16.25;;;13.88;;
11614;SDS011;5863;52.832;4.758;2022-08-19T04:34:20;17.33;;;14.02;;
11614;SDS011;5863;52.832;4.758;2022-08-19T04:36:50;16.65;;;14.93;;
11614;SDS011;5863;52.832;4.758;2022-08-19T04:39:18;18.85;;;14.88;;
11614;SDS011;5863;52.832;4.758;2022-08-19T04:41:46;17.13;;;14.48;;
11614;SDS011;5863;52.832;4.758;2022-08-19T04:44:31;16.90;;;14.15;;
11614;SDS011;5863;52.832;4.758;2022-08-19T04:46:59;17.48;;;14.88;;
11614;SDS011;5863;52.832;4.758;2022-08-19T04:49:28;23.42;;;15.10;;
11614;SDS011;5863;52.832;4.758;2022-08-19T04:51:55;18.65;;;15.05;;
11614;SDS011;5863;52.832;4.758;2022-08-19T04:54:22;16.58;;;14.45;;
11614;SDS011;5863;52.832;4.758;2022-08-19T04:56:50;21.08;;;15.25;;
11614;SDS011;5863;52.832;4.758;2022-08-19T04:59:18;16.98;;;14.88;;
11614;SDS011;5863;52.832;4.758;2022-08-19T05:01:45;16.85;;;14.60;;
11614;SDS011;5863;52.832;4.758;2022-08-19T05:04:17;18.42;;;14.43;;
11614;SDS011;5863;52.832;4.758;2022-08-19T05:06:45;17.63;;;14.98;;
11614;SDS011;5863;52.832;4.758;2022-08-19T05:09:13;18.42;;;14.73;;
11614;SDS011;5863;52.832;4.758;2022-08-19T05:11:40;23.13;;;16.27;;
11614;SDS011;5863;52.832;4.758;2022-08-19T05:14:07;20.13;;;15.95;;
11614;SDS011;5863;52.832;4.758;2022-08-19T05:16:37;20.77;;;14.73;;
11614;SDS011;5863;52.832;4.758;2022-08-19T05:19:04;20.42;;;16.90;;
11614;SDS011;5863;52.832;4.758;2022-08-19T05:21:50;19.65;;;15.98;;
11614;SDS011;5863;52.832;4.758;2022-08-19T05:24:34;18.67;;;15.38;;
11614;SDS011;5863;52.832;4.758;2022-08-19T05:27:02;18.70;;;16.00;;
11614;SDS011;5863;52.832;4.758;2022-08-19T05:29:30;21.38;;;16.70;;
11614;SDS011;5863;52.832;4.758;2022-08-19T05:31:59;20.17;;;16.08;;
11614;SDS011;5863;52.832;4.758;2022-08-19T05:34:27;21.35;;;15.52;;
11614;SDS011;5863;52.832;4.758;2022-08-19T05:36:56;21.83;;;16.83;;
11614;SDS011;5863;52.832;4.758;2022-08-19T05:39:25;21.98;;;16.83;;
11614;SDS011;5863;52.832;4.758;2022-08-19T05:41:54;22.10;;;16.63;;
11614;SDS011;5863;52.832;4.758;2022-08-19T05:44:24;18.90;;;16.02;;
11614;SDS011;5863;52.832;4.758;2022-08-19T05:46:52;21.92;;;18.17;;
11614;SDS011;5863;52.832;4.758;2022-08-19T05:49:20;21.05;;;17.48;;
11614;SDS011;5863;52.832;4.758;2022-08-19T05:51:48;21.50;;;17.27;;
11614;SDS011;5863;52.832;4.758;2022-08-19T05:54:18;23.35;;;18.10;;
11614;SDS011;5863;52.832;4.758;2022-08-19T05:56:45;24.98;;;18.90;;
11614;SDS011;5863;52.832;4.758;2022-08-19T05:59:13;24.90;;;18.92;;
11614;SDS011;5863;52.832;4.758;2022-08-19T06:01:41;23.85;;;18.52;;
11614;SDS011;5863;52.832;4.758;2022-08-19T06:04:09;23.88;;;18.63;;
11614;SDS011;5863;52.832;4.758;2022-08-19T06:06:38;25.45;;;20.45;;
11614;SDS011;5863;52.832;4.758;2022-08-19T06:09:06;24.88;;;19.15;;
11614;SDS011;5863;52.832;4.758;2022-08-19T06:11:37;26.13;;;18.75;;
11614;SDS011;5863;52.832;4.758;2022-08-19T06:14:06;28.13;;;19.80;;
11614;SDS011;5863;52.832;4.758;2022-08-19T06:16:35;27.15;;;19.33;;
11614;SDS011;5863;52.832;4.758;2022-08-19T06:19:04;24.27;;;18.60;;
11614;SDS011;5863;52.832;4.758;2022-08-19T06:21:32;22.27;;;18.75;;
11614;SDS011;5863;52.832;4.758;2022-08-19T06:24:02;27.95;;;19.08;;
11614;SDS011;5863;52.832;4.758;2022-08-19T06:26:30;24.17;;;18.02;;
11614;SDS011;5863;52.832;4.758;2022-08-19T06:28:58;27.15;;;19.50;;
11614;SDS011;5863;52.832;4.758;2022-08-19T06:31:25;22.85;;;17.67;;
11614;SDS011;5863;52.832;4.758;2022-08-19T06:33:53;24.35;;;17.30;;
11614;SDS011;5863;52.832;4.758;2022-08-19T06:36:20;20.88;;;17.00;;
11614;SDS011;5863;52.832;4.758;2022-08-19T06:38:52;21.08;;;16.33;;
11614;SDS011;5863;52.832;4.758;2022-08-19T06:41:19;20.00;;;15.65;;
11614;SDS011;5863;52.832;4.758;2022-08-19T06:43:46;21.13;;;15.98;;
11614;SDS011;5863;52.832;4.758;2022-08-19T06:46:15;19.15;;;15.27;;
11614;SDS011;5863;52.832;4.758;2022-08-19T06:48:43;24.48;;;14.43;;
11614;SDS011;5863;52.832;4.758;2022-08-19T06:51:10;16.00;;;12.85;;
11614;SDS011;5863;52.832;4.758;2022-08-19T06:53:37;16.33;;;12.32;;
11614;SDS011;5863;52.832;4.758;2022-08-19T06:56:05;13.95;;;10.20;;
11614;SDS011;5863;52.832;4.758;2022-08-19T06:58:32;14.85;;;8.35;;
11614;SDS011;5863;52.832;4.758;2022-08-19T07:00:59;14.15;;;7.35;;
11614;SDS011;5863;52.832;4.758;2022-08-19T07:03:30;14.35;;;7.13;;
11614;SDS011;5863;52.832;4.758;2022-08-19T07:05:58;12.63;;;6.35;;
11614;SDS011;5863;52.832;4.758;2022-08-19T07:08:29;11.60;;;6.25;;
11614;SDS011;5863;52.832;4.758;2022-08-19T07:10:56;14.75;;;6.45;;
11614;SDS011;5863;52.832;4.758;2022-08-19T07:13:23;11.05;;;6.97;;
11614;SDS011;5863;52.832;4.758;2022-08-19T07:15:53;10.93;;;6.28;;
11614;SDS011;5863;52.832;4.758;2022-08-19T07:18:20;10.13;;;5.80;;
11614;SDS011;5863;52.832;4.758;2022-08-19T07:20:49;9.40;;;5.93;;
11614;SDS011;5863;52.832;4.758;2022-08-19T07:23:15;8.05;;;5.30;;
11614;SDS011;5863;52.832;4.758;2022-08-19T07:25:42;6.90;;;5.15;;
11614;SDS011;5863;52.832;4.758;2022-08-19T07:28:11;7.80;;;5.07;;
11614;SDS011;5863;52.832;4.758;2022-08-19T07:30:37;8.40;;;4.97;;
11614;SDS011;5863;52.832;4.758;2022-08-19T07:33:05;9.65;;;5.25;;
11614;SDS011;5863;52.832;4.758;2022-08-19T07:35:32;6.35;;;5.20;;
11614;SDS011;5863;52.832;4.758;2022-08-19T07:38:00;10.27;;;5.50;;
11614;SDS011;5863;52.832;4.758;2022-08-19T07:40:28;8.13;;;4.97;;
11614;SDS011;5863;52.832;4.758;2022-08-19T07:42:56;7.35;;;5.43;;
11614;SDS011;5863;52.832;4.758;2022-08-19T07:45:23;8.02;;;5.10;;
11614;SDS011;5863;52.832;4.758;2022-08-19T07:47:49;7.20;;;4.95;;
11614;SDS011;5863;52.832;4.758;2022-08-19T07:50:17;6.88;;;4.95;;
11614;SDS011;5863;52.832;4.758;2022-08-19T07:52:45;8.27;;;5.25;;
11614;SDS011;5863;52.832;4.758;2022-08-19T07:55:13;8.60;;;5.03;;
11614;SDS011;5863;52.832;4.758;2022-08-19T07:57:40;9.15;;;5.00;;
11614;SDS011;5863;52.832;4.758;2022-08-19T08:00:07;8.63;;;5.32;;
11614;SDS011;5863;52.832;4.758;2022-08-19T08:02:34;7.15;;;4.95;;
11614;SDS011;5863;52.832;4.758;2022-08-19T08:05:02;7.70;;;5.13;;
11614;SDS011;5863;52.832;4.758;2022-08-19T08:07:46;7.90;;;4.78;;
11614;SDS011;5863;52.832;4.758;2022-08-19T08:10:32;8.30;;;4.95;;
11614;SDS011;5863;52.832;4.758;2022-08-19T08:12:59;7.22;;;4.88;;
11614;SDS011;5863;52.832;4.758;2022-08-19T08:15:26;6.60;;;5.10;;
11614;SDS011;5863;52.832;4.758;2022-08-19T08:17:52;11.32;;;5.47;;
11614;SDS011;5863;52.832;4.758;2022-08-19T08:20:19;7.40;;;4.57;;
11614;SDS011;5863;52.832;4.758;2022-08-19T08:22:46;7.28;;;4.93;;
11614;SDS011;5863;52.832;4.758;2022-08-19T08:25:33;6.75;;;5.15;;
11614;SDS011;5863;52.832;4.758;2022-08-19T08:28:01;10.43;;;5.03;;
11614;SDS011;5863;52.832;4.758;2022-08-19T08:30:30;10.25;;;5.65;;
11614;SDS011;5863;52.832;4.758;2022-08-19T08:32:57;7.20;;;5.00;;
11614;SDS011;5863;52.832;4.758;2022-08-19T08:35:24;10.40;;;5.63;;
11614;SDS011;5863;52.832;4.758;2022-08-19T08:37:52;9.70;;;5.47;;
11614;SDS011;5863;52.832;4.758;2022-08-19T08:40:22;11.20;;;5.25;;
11614;SDS011;5863;52.832;4.758;2022-08-19T08:42:57;10.75;;;5.68;;
11614;SDS011;5863;52.832;4.758;2022-08-19T08:45:30;6.93;;;4.78;;
11614;SDS011;5863;52.832;4.758;2022-08-19T08:48:00;8.05;;;4.80;;
11614;SDS011;5863;52.832;4.758;2022-08-19T08:50:32;7.70;;;5.30;;
11614;SDS011;5863;52.832;4.758;2022-08-19T08:53:04;13.38;;;5.18;;
11614;SDS011;5863;52.832;4.758;2022-08-19T08:55:33;10.63;;;5.15;;
11614;SDS011;5863;52.832;4.758;2022-08-19T08:58:03;10.50;;;5.00;;
11614;SDS011;5863;52.832;4.758;2022-08-19T09:00:32;7.30;;;4.95;;
11614;SDS011;5863;52.832;4.758;2022-08-19T09:03:01;6.47;;;4.68;;
11614;SDS011;5863;52.832;4.758;2022-08-19T09:05:33;8.13;;;4.45;;
11614;SDS011;5863;52.832;4.758;2022-08-19T09:08:07;5.55;;;4.85;;
11614;SDS011;5863;52.832;4.758;2022-08-19T09:10:39;7.85;;;5.00;;
11614;SDS011;5863;52.832;4.758;2022-08-19T09:13:18;8.02;;;5.15;;
11614;SDS011;5863;52.832;4.758;2022-08-19T09:16:02;7.15;;;4.63;;
11614;SDS011;5863;52.832;4.758;2022-08-19T09:18:38;6.18;;;4.65;;
11614;SDS011;5863;52.832;4.758;2022-08-19T09:21:07;7.30;;;5.03;;
11614;SDS011;5863;52.832;4.758;2022-08-19T09:23:34;7.50;;;5.25;;
11614;SDS011;5863;52.832;4.758;2022-08-19T09:26:01;8.20;;;5.65;;
11614;SDS011;5863;52.832;4.758;2022-08-19T09:28:34;6.30;;;5.18;;
11614;SDS011;5863;52.832;4.758;2022-08-19T09:31:02;7.47;;;5.60;;
11614;SDS011;5863;52.832;4.758;2022-08-19T09:33:29;7.10;;;5.28;;
11614;SDS011;5863;52.832;4.758;2022-08-19T09:36:01;6.10;;;5.03;;
11614;SDS011;5863;52.832;4.758;2022-08-19T09:38:29;6.28;;;4.82;;
11614;SDS011;5863;52.832;4.758;2022-08-19T09:40:56;8.13;;;5.10;;
11614;SDS011;5863;52.832;4.758;2022-08-19T09:43:29;13.48;;;5.40;;
11614;SDS011;5863;52.832;4.758;2022-08-19T09:45:58;6.70;;;4.72;;
11614;SDS011;5863;52.832;4.758;2022-08-19T09:48:25;7.57;;;4.82;;
11614;SDS011;5863;52.832;4.758;2022-08-19T09:50:53;6.60;;;4.72;;
11614;SDS011;5863;52.832;4.758;2022-08-19T09:53:19;7.18;;;5.10;;
11614;SDS011;5863;52.832;4.758;2022-08-19T09:55:49;8.35;;;4.78;;
11614;SDS011;5863;52.832;4.758;2022-08-19T09:58:16;5.60;;;4.78;;
11614;SDS011;5863;52.832;4.758;2022-08-19T10:00:42;6.68;;;4.82;;
11614;SDS011;5863;52.832;4.758;2022-08-19T10:03:12;5.63;;;4.13;;
11614;SDS011;5863;52.832;4.758;2022-08-19T10:05:39;7.43;;;4.80;;
11614;SDS011;5863;52.832;4.758;2022-08-19T10:08:14;7.78;;;4.50;;
11614;SDS011;5863;52.832;4.758;2022-08-19T10:10:41;6.38;;;5.10;;
11614;SDS011;5863;52.832;4.758;2022-08-19T10:13:09;6.15;;;4.72;;
11614;SDS011;5863;52.832;4.758;2022-08-19T10:15:37;6.53;;;4.97;;
11614;SDS011;5863;52.832;4.758;2022-08-19T10:18:05;6.05;;;4.57;;
11614;SDS011;5863;52.832;4.758;2022-08-19T10:20:34;5.50;;;4.50;;
11614;SDS011;5863;52.832;4.758;2022-08-19T10:23:02;7.18;;;4.85;;
11614;SDS011;5863;52.832;4.758;2022-08-19T10:25:28;8.40;;;4.45;;
11614;SDS011;5863;52.832;4.758;2022-08-19T10:27:55;5.97;;;4.28;;
11614;SDS011;5863;52.832;4.758;2022-08-19T10:30:22;5.72;;;4.30;;
11614;SDS011;5863;52.832;4.758;2022-08-19T10:32:49;9.85;;;4.72;;
11614;SDS011;5863;52.832;4.758;2022-08-19T10:35:16;6.90;;;4.70;;
11614;SDS011;5863;52.832;4.758;2022-08-19T10:37:44;5.40;;;4.47;;
11614;SDS011;5863;52.832;4.758;2022-08-19T10:40:11;5.90;;;4.57;;
11614;SDS011;5863;52.832;4.758;2022-08-19T10:42:38;7.38;;;4.40;;
11614;SDS011;5863;52.832;4.758;2022-08-19T10:45:05;7.00;;;5.25;;
11614;SDS011;5863;52.832;4.758;2022-08-19T10:47:34;6.65;;;4.97;;
11614;SDS011;5863;52.832;4.758;2022-08-19T10:50:01;6.18;;;4.95;;
11614;SDS011;5863;52.832;4.758;2022-08-19T10:52:48;6.07;;;4.65;;
11614;SDS011;5863;52.832;4.758;2022-08-19T10:55:16;6.15;;;4.82;;
11614;SDS011;5863;52.832;4.758;2022-08-19T10:58:02;10.02;;;5.30;;
11614;SDS011;5863;52.832;4.758;2022-08-19T11:00:29;6.55;;;5.20;;
11614;SDS011;5863;52.832;4.758;2022-08-19T11:02:57;6.78;;;5.30;;
11614;SDS011;5863;52.832;4.758;2022-08-19T11:05:24;7.40;;;4.85;;
11614;SDS011;5863;52.832;4.758;2022-08-19T11:07:52;8.85;;;4.90;;
11614;SDS011;5863;52.832;4.758;2022-08-19T11:10:19;5.47;;;4.10;;
11614;SDS011;5863;52.832;4.758;2022-08-19T11:12:46;8.18;;;5.38;;
11614;SDS011;5863;52.832;4.758;2022-08-19T11:15:13;6.43;;;4.63;;
11614;SDS011;5863;52.832;4.758;2022-08-19T11:17:41;5.13;;;4.40;;
11614;SDS011;5863;52.832;4.758;2022-08-19T11:20:09;6.53;;;5.32;;
11614;SDS011;5863;52.832;4.758;2022-08-19T11:22:37;7.10;;;4.45;;
11614;SDS011;5863;52.832;4.758;2022-08-19T11:25:06;7.88;;;4.70;;
11614;SDS011;5863;52.832;4.758;2022-08-19T11:27:37;8.05;;;4.65;;
11614;SDS011;5863;52.832;4.758;2022-08-19T11:30:07;6.38;;;4.43;;
11614;SDS011;5863;52.832;4.758;2022-08-19T11:32:36;6.18;;;4.28;;
11614;SDS011;5863;52.832;4.758;2022-08-19T11:35:03;5.68;;;4.55;;
11614;SDS011;5863;52.832;4.758;2022-08-19T11:37:30;6.57;;;4.60;;
11614;SDS011;5863;52.832;4.758;2022-08-19T11:39:57;6.65;;;4.28;;
11614;SDS011;5863;52.832;4.758;2022-08-19T11:42:26;5.43;;;4.22;;
11614;SDS011;5863;52.832;4.758;2022-08-19T11:45:10;5.55;;;4.40;;
11614;SDS011;5863;52.832;4.758;2022-08-19T11:47:38;5.78;;;4.03;;
11614;SDS011;5863;52.832;4.758;2022-08-19T11:50:05;6.25;;;3.83;;
11614;SDS011;5863;52.832;4.758;2022-08-19T11:52:32;5.85;;;4.38;;
11614;SDS011;5863;52.832;4.758;2022-08-19T11:54:59;7.53;;;4.80;;
11614;SDS011;5863;52.832;4.758;2022-08-19T11:57:27;7.70;;;5.13;;
11614;SDS011;5863;52.832;4.758;2022-08-19T11:59:54;6.38;;;5.00;;
11614;SDS011;5863;52.832;4.758;2022-08-19T12:02:21;5.50;;;4.45;;
11614;SDS011;5863;52.832;4.758;2022-08-19T12:04:48;7.28;;;5.00;;
11614;SDS011;5863;52.832;4.758;2022-08-19T12:07:15;6.13;;;4.60;;
11614;SDS011;5863;52.832;4.758;2022-08-19T12:09:41;6.07;;;4.85;;
11614;SDS011;5863;52.832;4.758;2022-08-19T12:12:08;8.32;;;4.70;;
11614;SDS011;5863;52.832;4.758;2022-08-19T12:14:36;7.22;;;4.60;;
11614;SDS011;5863;52.832;4.758;2022-08-19T12:17:04;9.25;;;5.82;;
11614;SDS011;5863;52.832;4.758;2022-08-19T12:19:32;9.18;;;5.70;;
11614;SDS011;5863;52.832;4.758;2022-08-19T12:22:00;7.75;;;5.60;;
11614;SDS011;5863;52.832;4.758;2022-08-19T12:24:29;7.03;;;5.00;;
11614;SDS011;5863;52.832;4.758;2022-08-19T12:26:57;7.22;;;5.68;;
11614;SDS011;5863;52.832;4.758;2022-08-19T12:29:26;11.70;;;6.97;;
11614;SDS011;5863;52.832;4.758;2022-08-19T12:31:55;10.68;;;5.85;;
11614;SDS011;5863;52.832;4.758;2022-08-19T12:34:26;9.98;;;5.70;;
11614;SDS011;5863;52.832;4.758;2022-08-19T12:36:55;7.68;;;5.20;;
11614;SDS011;5863;52.832;4.758;2022-08-19T12:39:22;7.32;;;4.65;;
11614;SDS011;5863;52.832;4.758;2022-08-19T12:41:48;7.82;;;5.40;;
11614;SDS011;5863;52.832;4.758;2022-08-19T12:44:16;9.60;;;5.65;;
11614;SDS011;5863;52.832;4.758;2022-08-19T12:46:43;8.07;;;4.75;;
11614;SDS011;5863;52.832;4.758;2022-08-19T12:49:11;7.93;;;5.05;;
11614;SDS011;5863;52.832;4.758;2022-08-19T12:51:37;8.50;;;5.53;;
11614;SDS011;5863;52.832;4.758;2022-08-19T12:54:04;6.53;;;5.07;;
11614;SDS011;5863;52.832;4.758;2022-08-19T12:56:31;7.00;;;5.05;;
11614;SDS011;5863;52.832;4.758;2022-08-19T12:59:00;6.97;;;4.75;;
11614;SDS011;5863;52.832;4.758;2022-08-19T13:01:27;5.93;;;4.40;;
11614;SDS011;5863;52.832;4.758;2022-08-19T13:03:55;8.07;;;5.18;;
11614;SDS011;5863;52.832;4.758;2022-08-19T13:06:23;10.05;;;5.07;;
11614;SDS011;5863;52.832;4.758;2022-08-19T13:08:50;6.60;;;4.38;;
11614;SDS011;5863;52.832;4.758;2022-08-19T13:11:18;5.40;;;4.28;;
11614;SDS011;5863;52.832;4.758;2022-08-19T13:13:49;11.55;;;4.97;;
11614;SDS011;5863;52.832;4.758;2022-08-19T13:16:18;6.95;;;4.68;;
11614;SDS011;5863;52.832;4.758;2022-08-19T13:18:46;6.63;;;4.65;;
11614;SDS011;5863;52.832;4.758;2022-08-19T13:21:14;5.15;;;4.05;;
11614;SDS011;5863;52.832;4.758;2022-08-19T13:23:42;6.28;;;4.40;;
11614;SDS011;5863;52.832;4.758;2022-08-19T13:26:10;7.47;;;4.20;;
11614;SDS011;5863;52.832;4.758;2022-08-19T13:28:37;5.88;;;4.30;;
11614;SDS011;5863;52.832;4.758;2022-08-19T13:31:23;7.10;;;3.72;;
11614;SDS011;5863;52.832;4.758;2022-08-19T13:34:10;8.02;;;4.18;;
11614;SDS011;5863;52.832;4.758;2022-08-19T13:36:38;8.32;;;4.18;;
11614;SDS011;5863;52.832;4.758;2022-08-19T13:39:06;8.15;;;4.15;;
11614;SDS011;5863;52.832;4.758;2022-08-19T13:41:34;5.25;;;4.20;;
11614;SDS011;5863;52.832;4.758;2022-08-19T13:44:02;8.48;;;4.65;;
11614;SDS011;5863;52.832;4.758;2022-08-19T13:46:29;9.20;;;4.97;;
11614;SDS011;5863;52.832;4.758;2022-08-19T13:48:56;8.68;;;5.00;;
11614;SDS011;5863;52.832;4.758;2022-08-19T13:51:23;8.50;;;4.82;;
11614;SDS011;5863;52.832;4.758;2022-08-19T13:53:49;7.60;;;4.00;;
11614;SDS011;5863;52.832;4.758;2022-08-19T13:56:19;7.00;;;5.03;;
11614;SDS011;5863;52.832;4.758;2022-08-19T13:58:46;6.80;;;4.63;;
11614;SDS011;5863;52.832;4.758;2022-08-19T14:01:18;6.82;;;4.80;;
11614;SDS011;5863;52.832;4.758;2022-08-19T14:03:45;8.75;;;4.60;;
11614;SDS011;5863;52.832;4.758;2022-08-19T14:06:12;8.10;;;4.38;;
11614;SDS011;5863;52.832;4.758;2022-08-19T14:08:39;6.43;;;4.60;;
11614;SDS011;5863;52.832;4.758;2022-08-19T14:11:06;5.38;;;4.03;;
11614;SDS011;5863;52.832;4.758;2022-08-19T14:13:34;3.92;;;3.53;;
11614;SDS011;5863;52.832;4.758;2022-08-19T14:16:06;4.70;;;4.18;;
11614;SDS011;5863;52.832;4.758;2022-08-19T14:18:34;6.13;;;4.18;;
11614;SDS011;5863;52.832;4.758;2022-08-19T14:21:01;6.80;;;4.30;;
11614;SDS011;5863;52.832;4.758;2022-08-19T14:23:28;7.03;;;4.53;;
11614;SDS011;5863;52.832;4.758;2022-08-19T14:26:02;5.88;;;4.78;;
11614;SDS011;5863;52.832;4.758;2022-08-19T14:28:29;6.95;;;4.60;;
11614;SDS011;5863;52.832;4.758;2022-08-19T14:30:58;7.78;;;4.28;;
11614;SDS011;5863;52.832;4.758;2022-08-19T14:33:24;6.78;;;4.20;;
11614;SDS011;5863;52.832;4.758;2022-08-19T14:35:51;4.43;;;3.92;;
11614;SDS011;5863;52.832;4.758;2022-08-19T14:38:18;3.70;;;3.40;;
11614;SDS011;5863;52.832;4.758;2022-08-19T14:40:44;5.15;;;3.28;;
11614;SDS011;5863;52.832;4.758;2022-08-19T14:43:11;7.03;;;3.50;;
11614;SDS011;5863;52.832;4.758;2022-08-19T14:45:39;4.68;;;3.17;;
11614;SDS011;5863;52.832;4.758;2022-08-19T14:48:07;5.20;;;3.28;;
11614;SDS011;5863;52.832;4.758;2022-08-19T14:50:35;5.47;;;3.17;;
11614;SDS011;5863;52.832;4.758;2022-08-19T14:53:04;4.47;;;2.95;;
11614;SDS011;5863;52.832;4.758;2022-08-19T14:55:32;5.93;;;3.45;;
11614;SDS011;5863;52.832;4.758;2022-08-19T14:57:59;3.95;;;3.30;;
11614;SDS011;5863;52.832;4.758;2022-08-19T15:00:26;9.48;;;3.58;;